createdAt,value
2019-05-06T00:01:47.788Z,8.70
2019-05-06T00:04:18.530Z,8.70
2019-05-06T00:06:49.684Z,8.70
2019-05-06T00:09:20.831Z,8.60
2019-05-06T00:11:54.101Z,8.60
2019-05-06T00:14:24.962Z,8.50
2019-05-06T00:16:58.505Z,8.50
2019-05-06T00:19:28.613Z,8.50
2019-05-06T00:21:59.744Z,8.50
2019-05-06T00:24:36.119Z,8.60
2019-05-06T00:27:18.632Z,8.60
2019-05-06T00:29:49.601Z,8.60
2019-05-06T00:32:20.417Z,8.60
2019-05-06T00:34:55.698Z,8.60
2019-05-06T00:37:26.389Z,8.50
2019-05-06T00:40:07.447Z,8.50
2019-05-06T00:42:48.548Z,8.40
2019-05-06T00:45:19.903Z,8.30
2019-05-06T00:47:51.259Z,8.30
2019-05-06T00:50:24.455Z,8.30
2019-05-06T00:52:56.630Z,8.30
2019-05-06T00:55:27.627Z,8.30
2019-05-06T00:57:58.711Z,8.30
2019-05-06T01:00:34.405Z,8.30
2019-05-06T01:03:05.831Z,8.20
2019-05-06T01:05:36.465Z,8.30
2019-05-06T01:08:07.397Z,8.30
2019-05-06T01:10:38.561Z,8.30
2019-05-06T01:13:26.569Z,8.30
2019-05-06T01:15:57.227Z,8.30
2019-05-06T01:18:29.613Z,8.20
2019-05-06T01:21:14.581Z,8.20
2019-05-06T01:23:47.523Z,8.20
2019-05-06T01:26:18.419Z,8.10
2019-05-06T01:28:49.971Z,8.10
2019-05-06T01:31:20.714Z,8.10
2019-05-06T01:33:50.867Z,8.10
2019-05-06T01:36:20.959Z,8.10
2019-05-06T01:39:19.689Z,8.00
2019-05-06T01:42:07.494Z,7.90
2019-05-06T01:44:38.633Z,7.90
2019-05-06T01:47:09.779Z,7.80
2019-05-06T01:49:40.329Z,7.80
2019-05-06T01:52:10.863Z,7.80
2019-05-06T01:54:43.455Z,7.80
2019-05-06T01:57:13.989Z,7.80
2019-05-06T01:59:44.447Z,7.80
2019-05-06T02:02:15.854Z,7.80
2019-05-06T02:04:46.810Z,7.80
2019-05-06T02:07:16.622Z,7.80
2019-05-06T02:09:47.449Z,7.70
2019-05-06T02:12:17.992Z,7.70
2019-05-06T02:14:48.476Z,7.60
2019-05-06T02:17:19.670Z,7.60
2019-05-06T02:19:50.310Z,7.60
2019-05-06T02:22:32.006Z,7.60
2019-05-06T02:25:16.460Z,7.50
2019-05-06T02:27:47.194Z,7.50
2019-05-06T02:30:40.264Z,7.40
2019-05-06T02:33:24.663Z,7.30
2019-05-06T02:36:00.165Z,7.20
2019-05-06T02:38:45.961Z,7.10
2019-05-06T02:41:06.570Z,7.10
2019-05-06T02:43:37.305Z,7.10
2019-05-06T02:46:08.443Z,7.10
2019-05-06T02:48:58.059Z,7.00
2019-05-06T02:51:33.128Z,7.00
2019-05-06T02:54:03.530Z,7.00
2019-05-06T02:56:34.554Z,7.00
2019-05-06T02:59:05.284Z,7.00
2019-05-06T03:01:36.631Z,6.90
2019-05-06T03:04:06.982Z,6.90
2019-05-06T03:06:37.093Z,6.90
2019-05-06T03:09:09.259Z,6.90
2019-05-06T03:11:39.391Z,6.80
2019-05-06T03:14:10.112Z,6.80
2019-05-06T03:16:43.669Z,6.80
2019-05-06T03:19:13.989Z,6.80
2019-05-06T03:21:54.722Z,6.70
2019-05-06T03:24:43.601Z,6.60
2019-05-06T03:27:14.562Z,6.60
2019-05-06T03:29:45.294Z,6.60
2019-05-06T03:32:22.997Z,6.50
2019-05-06T03:35:12.390Z,6.50
2019-05-06T03:37:23.734Z,6.50
2019-05-06T03:39:53.681Z,6.50
2019-05-06T03:42:24.245Z,6.50
2019-05-06T03:44:59.124Z,6.40
2019-05-06T03:47:38.885Z,6.40
2019-05-06T03:50:13.236Z,6.40
2019-05-06T03:52:45.072Z,6.50
2019-05-06T03:55:15.936Z,6.50
2019-05-06T03:57:49.815Z,6.50
2019-05-06T04:00:23.501Z,6.50
2019-05-06T04:02:53.828Z,6.50
2019-05-06T04:05:25.042Z,6.50
2019-05-06T04:07:56.270Z,6.50
2019-05-06T04:10:27.605Z,6.40
2019-05-06T04:13:03.938Z,6.40
2019-05-06T04:15:58.179Z,6.40
2019-05-06T04:18:33.192Z,6.40
2019-05-06T04:21:13.658Z,6.30
2019-05-06T04:23:53.441Z,6.30
2019-05-06T04:26:38.913Z,6.30
2019-05-06T04:29:12.416Z,6.20
2019-05-06T04:31:43.661Z,6.20
2019-05-06T04:34:19.728Z,6.20
2019-05-06T04:36:49.070Z,6.30
2019-05-06T04:39:19.619Z,6.30
2019-05-06T04:41:53.639Z,6.30
2019-05-06T04:44:24.414Z,6.30
2019-05-06T04:46:56.317Z,6.30
2019-05-06T04:49:27.222Z,6.30
2019-05-06T04:51:58.219Z,6.30
2019-05-06T04:54:33.052Z,6.20
2019-05-06T04:57:05.059Z,6.20
2019-05-06T04:59:36.183Z,6.20
2019-05-06T05:02:07.167Z,6.20
2019-05-06T05:04:38.708Z,6.10
2019-05-06T05:07:09.661Z,6.10
2019-05-06T05:09:42.999Z,6.10
2019-05-06T05:12:33.610Z,6.10
2019-05-06T05:15:17.923Z,6.10
2019-05-06T05:18:12.896Z,6.10
2019-05-06T05:20:46.491Z,6.20
2019-05-06T05:23:17.593Z,6.20
2019-05-06T05:25:49.139Z,6.20
2019-05-06T05:28:22.320Z,6.30
2019-05-06T05:30:54.094Z,6.40
2019-05-06T05:33:25.442Z,6.40
2019-05-06T05:35:56.807Z,6.40
2019-05-06T05:38:27.338Z,6.50
2019-05-06T05:40:58.702Z,6.50
2019-05-06T05:43:42.739Z,6.60
2019-05-06T05:46:13.639Z,6.70
2019-05-06T05:49:18.466Z,6.70
2019-05-06T05:51:48.748Z,6.70
2019-05-06T05:54:20.102Z,6.80
2019-05-06T05:56:52.879Z,6.80
2019-05-06T05:59:23.414Z,6.90
2019-05-06T06:01:54.776Z,7.00
2019-05-06T06:04:26.356Z,7.00
2019-05-06T06:06:57.053Z,7.10
2019-05-06T06:09:32.753Z,7.20
2019-05-06T06:12:06.025Z,7.30
2019-05-06T06:14:56.511Z,7.30
2019-05-06T06:17:46.724Z,7.30
2019-05-06T06:20:35.477Z,7.40
2019-05-06T06:23:18.755Z,7.50
2019-05-06T06:25:49.458Z,7.60
2019-05-06T06:28:22.681Z,7.70
2019-05-06T06:31:15.086Z,7.80
2019-05-06T06:33:46.080Z,7.90
2019-05-06T06:36:23.678Z,8.00
2019-05-06T06:38:57.914Z,8.10
2019-05-06T06:41:29.490Z,8.20
2019-05-06T06:44:03.630Z,8.20
2019-05-06T06:46:35.096Z,8.20
2019-05-06T06:49:06.857Z,8.30
2019-05-06T06:51:37.701Z,8.30
2019-05-06T06:54:08.929Z,8.40
2019-05-06T06:57:09.364Z,8.50
2019-05-06T07:00:09.614Z,8.50
2019-05-06T07:02:52.463Z,8.60
2019-05-06T07:05:39.831Z,8.60
2019-05-06T07:08:12.678Z,8.70
2019-05-06T07:10:43.905Z,8.80
2019-05-06T07:13:17.307Z,8.80
2019-05-06T07:15:48.455Z,8.90
2019-05-06T07:18:19.593Z,9.00
2019-05-06T07:21:17.163Z,9.10
2019-05-06T07:23:48.107Z,9.20
2019-05-06T07:26:23.738Z,9.30
2019-05-06T07:28:53.897Z,9.40
2019-05-06T07:31:26.729Z,9.50
2019-05-06T07:33:57.210Z,9.70
2019-05-06T07:36:28.559Z,9.80
2019-05-06T07:39:03.923Z,9.90
2019-05-06T07:42:02.805Z,10.00
2019-05-06T07:44:55.668Z,10.20
2019-05-06T07:47:33.723Z,10.30
2019-05-06T07:50:06.160Z,10.50
2019-05-06T07:52:37.098Z,10.60
2019-05-06T07:55:08.451Z,10.70
2019-05-06T07:57:38.936Z,11.00
2019-05-06T08:00:12.449Z,11.10
2019-05-06T08:02:42.641Z,11.20
2019-05-06T08:05:13.801Z,11.40
2019-05-06T08:07:44.402Z,11.60
2019-05-06T08:10:15.114Z,12.00
2019-05-06T08:12:46.016Z,12.30
2019-05-06T08:15:18.692Z,12.60
2019-05-06T08:17:49.595Z,12.70
2019-05-06T08:20:22.175Z,12.50
2019-05-06T08:23:17.896Z,12.40
2019-05-06T08:25:52.753Z,12.30
2019-05-06T08:28:37.570Z,12.10
2019-05-06T08:30:54.778Z,12.00
2019-05-06T08:33:27.625Z,12.00
2019-05-06T08:36:08.922Z,12.20
2019-05-06T08:38:50.401Z,12.30
2019-05-06T08:41:22.740Z,12.30
2019-05-06T08:43:54.122Z,12.20
2019-05-06T08:46:25.688Z,12.10
2019-05-06T08:48:56.626Z,12.10
2019-05-06T08:51:36.992Z,12.30
2019-05-06T08:54:13.360Z,12.60
2019-05-06T08:56:44.194Z,13.00
2019-05-06T08:59:15.542Z,13.30
2019-05-06T09:01:49.157Z,13.30
2019-05-06T09:04:19.686Z,13.20
2019-05-06T09:06:50.225Z,13.00
2019-05-06T09:09:22.419Z,12.70
2019-05-06T09:11:54.157Z,12.40
2019-05-06T09:14:25.154Z,12.10
2019-05-06T09:16:56.450Z,12.40
2019-05-06T09:19:27.650Z,13.20
2019-05-06T09:21:58.314Z,13.90
2019-05-06T09:24:28.872Z,14.30
2019-05-06T09:27:04.951Z,14.60
2019-05-06T09:30:02.939Z,14.30
2019-05-06T09:32:38.046Z,14.00
2019-05-06T09:35:10.355Z,13.70
2019-05-06T09:37:42.995Z,13.40
2019-05-06T09:40:16.256Z,13.30
2019-05-06T09:42:47.048Z,13.70
2019-05-06T09:45:17.788Z,14.00
2019-05-06T09:47:53.746Z,14.00
2019-05-06T09:50:45.470Z,13.80
2019-05-06T09:53:17.626Z,13.40
2019-05-06T09:56:07.234Z,13.20
2019-05-06T09:58:42.934Z,13.00
2019-05-06T10:01:13.951Z,12.90
2019-05-06T10:03:45.185Z,12.80
2019-05-06T10:06:16.073Z,12.80
2019-05-06T10:08:46.381Z,12.80
2019-05-06T10:11:17.405Z,13.80
2019-05-06T10:13:48.958Z,15.40
2019-05-06T10:16:19.692Z,17.70
2019-05-06T10:18:52.430Z,19.00
2019-05-06T10:21:23.389Z,18.90
2019-05-06T10:23:54.574Z,18.50
2019-05-06T10:26:25.523Z,17.90
2019-05-06T10:29:02.453Z,16.90
2019-05-06T10:31:39.593Z,16.00
2019-05-06T10:34:13.825Z,15.10
2019-05-06T10:37:10.634Z,14.60
2019-05-06T10:39:31.034Z,14.00
2019-05-06T10:42:13.430Z,13.70
2019-05-06T10:45:12.373Z,13.50
2019-05-06T10:47:43.115Z,13.20
2019-05-06T10:50:14.062Z,13.10
2019-05-06T10:53:02.815Z,13.30
2019-05-06T10:55:33.539Z,13.30
2019-05-06T10:58:04.079Z,13.50
2019-05-06T11:00:35.637Z,13.70
2019-05-06T11:03:14.902Z,13.70
2019-05-06T11:05:46.537Z,14.00
2019-05-06T11:08:18.253Z,14.70
2019-05-06T11:10:48.974Z,16.30
2019-05-06T11:13:19.569Z,17.70
2019-05-06T11:15:52.732Z,18.90
2019-05-06T11:18:23.552Z,19.70
2019-05-06T11:20:56.231Z,20.10
2019-05-06T11:23:26.775Z,19.40
2019-05-06T11:25:59.205Z,18.60
2019-05-06T11:28:49.002Z,18.20
2019-05-06T11:31:43.358Z,17.70
2019-05-06T11:34:32.862Z,17.10
2019-05-06T11:37:24.299Z,16.70
2019-05-06T11:39:55.041Z,16.20
2019-05-06T11:42:32.098Z,15.60
2019-05-06T11:44:58.100Z,15.40
2019-05-06T11:47:28.605Z,15.20
2019-05-06T11:50:04.785Z,14.80
2019-05-06T11:52:34.437Z,14.60
2019-05-06T11:55:05.800Z,14.90
2019-05-06T11:57:38.859Z,16.60
2019-05-06T12:00:16.297Z,18.40
2019-05-06T12:02:48.758Z,19.90
2019-05-06T12:05:22.231Z,20.10
2019-05-06T12:08:01.973Z,19.30
2019-05-06T12:10:24.764Z,18.60
2019-05-06T12:12:55.899Z,18.20
2019-05-06T12:15:26.814Z,17.80
2019-05-06T12:17:56.838Z,17.70
2019-05-06T12:20:27.934Z,17.50
2019-05-06T12:22:58.671Z,17.30
2019-05-06T12:25:29.507Z,17.20
2019-05-06T12:28:00.358Z,17.00
2019-05-06T12:30:32.354Z,16.80
2019-05-06T12:33:37.264Z,16.80
2019-05-06T12:36:23.771Z,16.80
2019-05-06T12:39:15.839Z,16.60
2019-05-06T12:42:01.301Z,16.50
2019-05-06T12:44:34.293Z,16.30
2019-05-06T12:47:22.838Z,16.30
2019-05-06T12:49:53.598Z,16.20
2019-05-06T12:52:24.935Z,16.10
2019-05-06T12:55:13.652Z,16.10
2019-05-06T12:57:28.044Z,16.00
2019-05-06T12:59:59.035Z,15.90
2019-05-06T13:02:29.883Z,15.90
2019-05-06T13:05:03.905Z,15.80
2019-05-06T13:07:42.276Z,15.70
2019-05-06T13:10:13.177Z,15.70
2019-05-06T13:12:46.815Z,15.70
2019-05-06T13:15:18.377Z,15.40
2019-05-06T13:17:49.104Z,15.10
2019-05-06T13:20:22.571Z,15.00
2019-05-06T13:23:09.135Z,15.00
2019-05-06T13:25:36.101Z,15.00
2019-05-06T13:28:09.277Z,15.10
2019-05-06T13:30:43.181Z,15.60
2019-05-06T13:33:20.782Z,16.20
2019-05-06T13:35:52.589Z,16.50
2019-05-06T13:38:23.887Z,16.40
2019-05-06T13:40:57.589Z,16.50
2019-05-06T13:43:36.639Z,16.30
2019-05-06T13:46:13.536Z,16.00
2019-05-06T13:48:53.203Z,16.00
2019-05-06T13:51:27.666Z,16.00
2019-05-06T13:53:58.855Z,16.00
2019-05-06T13:56:29.859Z,15.90
2019-05-06T13:59:00.727Z,15.90
2019-05-06T14:01:36.183Z,15.70
2019-05-06T14:04:06.653Z,15.40
2019-05-06T14:06:37.866Z,15.20
2019-05-06T14:09:25.603Z,15.10
2019-05-06T14:11:43.028Z,14.90
2019-05-06T14:14:13.607Z,14.70
2019-05-06T14:16:44.903Z,14.60
2019-05-06T14:19:15.871Z,14.50
2019-05-06T14:21:46.185Z,14.50
2019-05-06T14:24:17.529Z,14.40
2019-05-06T14:26:59.048Z,14.40
2019-05-06T14:29:54.150Z,14.20
2019-05-06T14:32:25.178Z,14.10
2019-05-06T14:34:55.927Z,14.10
2019-05-06T14:37:27.283Z,14.00
2019-05-06T14:39:59.872Z,14.00
2019-05-06T14:42:32.903Z,14.00
2019-05-06T14:45:03.026Z,14.00
2019-05-06T14:47:36.786Z,14.00
2019-05-06T14:50:08.341Z,14.10
2019-05-06T14:52:39.495Z,14.20
2019-05-06T14:55:15.320Z,14.20
2019-05-06T14:57:45.879Z,14.30
2019-05-06T15:00:19.021Z,14.40
2019-05-06T15:02:49.829Z,14.50
2019-05-06T15:05:22.692Z,14.50
2019-05-06T15:07:53.277Z,14.60
2019-05-06T15:10:26.322Z,14.70
2019-05-06T15:12:55.890Z,14.90
2019-05-06T15:15:27.393Z,15.10
2019-05-06T15:17:58.158Z,15.10
2019-05-06T15:20:29.048Z,15.10
2019-05-06T15:22:59.200Z,15.10
2019-05-06T15:25:32.523Z,15.10
2019-05-06T15:28:03.755Z,15.10
2019-05-06T15:30:44.466Z,15.10
2019-05-06T15:33:16.894Z,15.00
2019-05-06T15:36:02.252Z,15.10
2019-05-06T15:38:32.693Z,15.10
2019-05-06T15:41:03.458Z,15.30
2019-05-06T15:43:34.812Z,15.20
2019-05-06T15:46:05.508Z,15.30
2019-05-06T15:48:36.282Z,15.30
2019-05-06T15:51:06.952Z,15.40
2019-05-06T15:53:37.970Z,15.40
2019-05-06T15:56:08.440Z,15.20
2019-05-06T15:58:42.185Z,15.10
2019-05-06T16:01:14.467Z,14.90
2019-05-06T16:03:45.226Z,14.80
2019-05-06T16:06:15.959Z,14.70
2019-05-06T16:08:46.083Z,14.50
2019-05-06T16:11:16.768Z,14.30
2019-05-06T16:13:47.352Z,14.20
2019-05-06T16:16:18.298Z,14.10
2019-05-06T16:18:48.898Z,14.00
2019-05-06T16:21:20.195Z,13.90
2019-05-06T16:23:59.320Z,13.80
2019-05-06T16:26:30.269Z,13.70
2019-05-06T16:29:02.346Z,13.60
2019-05-06T16:31:33.788Z,13.60
2019-05-06T16:34:04.115Z,13.70
2019-05-06T16:36:34.250Z,13.70
2019-05-06T16:39:07.234Z,13.60
2019-05-06T16:41:38.802Z,13.60
2019-05-06T16:44:09.539Z,13.60
2019-05-06T16:46:42.703Z,13.60
2019-05-06T16:49:14.138Z,13.60
2019-05-06T16:51:45.628Z,13.60
2019-05-06T16:54:17.209Z,13.60
2019-05-06T16:56:53.785Z,13.60
2019-05-06T16:59:24.604Z,13.60
2019-05-06T17:01:55.985Z,13.50
2019-05-06T17:04:44.313Z,13.40
2019-05-06T17:07:15.331Z,13.30
2019-05-06T17:09:46.007Z,13.20
2019-05-06T17:12:16.887Z,13.10
2019-05-06T17:14:47.673Z,13.10
2019-05-06T17:17:18.623Z,13.00
2019-05-06T17:19:52.765Z,13.00
2019-05-06T17:22:23.015Z,12.90
2019-05-06T17:24:54.532Z,12.80
2019-05-06T17:27:24.887Z,12.80
2019-05-06T17:30:22.460Z,12.80
2019-05-06T17:32:55.355Z,12.80
2019-05-06T17:35:25.437Z,12.80
2019-05-06T17:38:13.691Z,12.70
2019-05-06T17:40:44.417Z,12.80
2019-05-06T17:43:15.579Z,12.70
2019-05-06T17:46:01.130Z,12.60
2019-05-06T17:48:32.008Z,12.60
2019-05-06T17:51:13.915Z,12.50
2019-05-06T17:53:48.427Z,12.50
2019-05-06T17:56:19.582Z,12.50
2019-05-06T17:58:52.943Z,12.50
2019-05-06T18:01:42.034Z,12.40
2019-05-06T18:04:12.782Z,12.40
2019-05-06T18:06:43.463Z,12.30
2019-05-06T18:09:14.309Z,12.30
2019-05-06T18:11:57.924Z,12.30
2019-05-06T18:14:18.498Z,12.40
2019-05-06T18:16:49.645Z,12.40
2019-05-06T18:19:22.289Z,12.30
2019-05-06T18:21:53.794Z,12.30
2019-05-06T18:24:24.742Z,12.20
2019-05-06T18:26:54.784Z,12.20
2019-05-06T18:29:26.011Z,12.20
2019-05-06T18:31:56.948Z,12.20
2019-05-06T18:34:28.094Z,12.10
2019-05-06T18:36:58.858Z,12.10
2019-05-06T18:39:33.421Z,12.10
2019-05-06T18:42:16.000Z,12.00
2019-05-06T18:44:35.094Z,12.00
2019-05-06T18:47:05.998Z,11.90
2019-05-06T18:49:36.374Z,11.80
2019-05-06T18:52:07.360Z,11.80
2019-05-06T18:54:37.830Z,11.70
2019-05-06T18:57:09.036Z,11.60
2019-05-06T18:59:39.660Z,11.60
2019-05-06T19:02:10.109Z,11.50
2019-05-06T19:04:49.246Z,11.40
2019-05-06T19:07:21.492Z,11.40
2019-05-06T19:09:56.704Z,11.40
2019-05-06T19:12:31.666Z,11.30
2019-05-06T19:14:59.564Z,11.20
2019-05-06T19:17:30.307Z,11.10
2019-05-06T19:20:02.653Z,11.10
2019-05-06T19:22:32.975Z,11.00
2019-05-06T19:25:04.368Z,10.90
2019-05-06T19:27:36.950Z,10.90
2019-05-06T19:30:07.883Z,10.80
2019-05-06T19:32:38.572Z,10.80
2019-05-06T19:35:10.388Z,10.70
2019-05-06T19:37:41.481Z,10.70
2019-05-06T19:40:13.308Z,10.60
2019-05-06T19:42:49.685Z,10.50
2019-05-06T19:45:16.621Z,10.40
2019-05-06T19:47:47.015Z,10.40
2019-05-06T19:50:21.025Z,10.30
2019-05-06T19:52:52.838Z,10.30
2019-05-06T19:55:24.083Z,10.20
2019-05-06T19:57:55.219Z,10.10
2019-05-06T20:00:27.608Z,10.00
2019-05-06T20:02:58.082Z,10.00
2019-05-06T20:05:54.535Z,10.00
2019-05-06T20:08:35.465Z,9.90
2019-05-06T20:11:29.753Z,9.80
2019-05-06T20:14:01.961Z,9.80
2019-05-06T20:16:33.286Z,9.80
2019-05-06T20:19:04.832Z,9.80
2019-05-06T20:21:35.983Z,9.80
2019-05-06T20:24:06.309Z,9.80
2019-05-06T20:26:37.663Z,9.80
2019-05-06T20:29:08.805Z,9.90
2019-05-06T20:31:40.168Z,9.90
2019-05-06T20:34:12.798Z,9.90
2019-05-06T20:36:43.278Z,9.90
2019-05-06T20:39:14.019Z,9.90
2019-05-06T20:41:44.095Z,9.90
2019-05-06T20:44:14.855Z,9.90
2019-05-06T20:46:47.053Z,9.90
2019-05-06T20:49:17.787Z,9.90
2019-05-06T20:51:48.327Z,9.90
2019-05-06T20:54:19.475Z,9.90
2019-05-06T20:56:49.805Z,9.90
2019-05-06T20:59:22.925Z,10.00
2019-05-06T21:01:55.387Z,10.00
2019-05-06T21:04:26.783Z,10.00
2019-05-06T21:06:57.274Z,10.00
2019-05-06T21:09:28.211Z,10.00
2019-05-06T21:11:59.556Z,10.00
2019-05-06T21:14:32.236Z,10.00
2019-05-06T21:17:03.891Z,10.00
2019-05-06T21:19:35.051Z,10.00
2019-05-06T21:22:05.990Z,10.00
2019-05-06T21:24:37.053Z,10.10
2019-05-06T21:27:08.078Z,10.00
2019-05-06T21:29:38.823Z,10.00
2019-05-06T21:32:10.172Z,10.00
2019-05-06T21:34:43.228Z,10.10
2019-05-06T21:37:15.337Z,10.00
2019-05-06T21:39:46.488Z,10.10
2019-05-06T21:42:16.974Z,10.10
2019-05-06T21:44:47.352Z,10.10
2019-05-06T21:50:12.129Z,10.00
2019-05-06T21:52:43.929Z,10.00
2019-05-06T21:55:14.403Z,10.00
2019-05-06T21:57:45.406Z,10.10
2019-05-06T22:00:18.804Z,10.10
2019-05-06T22:02:52.856Z,10.10
2019-05-06T22:05:23.968Z,10.10
2019-05-06T22:07:55.124Z,10.00
2019-05-06T22:10:26.250Z,10.00
2019-05-06T22:12:57.150Z,10.00
2019-05-06T22:15:27.944Z,10.00
2019-05-06T22:17:58.686Z,10.00
2019-05-06T22:20:29.418Z,10.00
2019-05-06T22:22:59.502Z,10.00
2019-05-06T22:25:32.554Z,10.00
2019-05-06T22:28:02.868Z,10.00
2019-05-06T22:30:33.650Z,10.00
2019-05-06T22:33:04.349Z,10.00
2019-05-06T22:35:35.494Z,10.00
2019-05-06T22:38:06.438Z,10.00
2019-05-06T22:40:37.190Z,10.00
2019-05-06T22:43:07.710Z,10.00
2019-05-06T22:45:38.444Z,9.90
2019-05-06T22:48:12.001Z,9.90
2019-05-06T22:50:42.536Z,9.90
2019-05-06T22:53:13.533Z,9.90
2019-05-06T22:55:44.404Z,9.90
2019-05-06T22:58:15.419Z,10.00
2019-05-06T23:00:50.452Z,10.00
2019-05-06T23:03:23.034Z,10.00
2019-05-06T23:05:53.978Z,10.00
2019-05-06T23:08:26.725Z,10.00
2019-05-06T23:10:57.088Z,10.00
2019-05-06T23:13:28.051Z,10.00
2019-05-06T23:16:52.190Z,10.00
2019-05-06T23:19:42.607Z,10.00
2019-05-06T23:22:13.163Z,9.90
2019-05-06T23:24:44.113Z,9.90
2019-05-06T23:27:14.574Z,9.90
2019-05-06T23:29:45.247Z,9.90
2019-05-06T23:32:16.942Z,9.90
2019-05-06T23:34:47.679Z,9.90
2019-05-06T23:37:23.440Z,9.90
2019-05-06T23:40:33.244Z,10.00
2019-05-06T23:43:42.503Z,10.00
2019-05-06T23:46:48.390Z,9.90
2019-05-06T23:49:54.453Z,9.90
2019-05-06T23:53:02.782Z,9.90
2019-05-06T23:56:08.947Z,9.90
2019-05-06T23:58:39.883Z,9.80
